sensor_id;sensor_type;location;lat;lon;timestamp;P1;durP1;ratioP1;P2;durP2;ratioP2
69953;SDS011;57276;51.364;12.376;2023-07-24T00:00:59;4.40;;;1.88;;
69953;SDS011;57276;51.364;12.376;2023-07-24T00:07:01;3.50;;;1.57;;
69953;SDS011;57276;51.364;12.376;2023-07-24T00:13:02;4.32;;;1.60;;
69953;SDS011;57276;51.364;12.376;2023-07-24T00:19:05;4.30;;;1.80;;
69953;SDS011;57276;51.364;12.376;2023-07-24T00:25:06;6.07;;;1.90;;
69953;SDS011;57276;51.364;12.376;2023-07-24T00:31:10;3.33;;;1.42;;
69953;SDS011;57276;51.364;12.376;2023-07-24T00:37:12;4.00;;;1.83;;
69953;SDS011;57276;51.364;12.376;2023-07-24T00:43:13;4.75;;;1.77;;
69953;SDS011;57276;51.364;12.376;2023-07-24T00:49:15;3.50;;;1.50;;
69953;SDS011;57276;51.364;12.376;2023-07-24T00:55:17;4.28;;;1.83;;
69953;SDS011;57276;51.364;12.376;2023-07-24T01:01:19;4.18;;;1.70;;
69953;SDS011;57276;51.364;12.376;2023-07-24T01:07:21;5.67;;;2.20;;
69953;SDS011;57276;51.364;12.376;2023-07-24T01:13:24;4.00;;;1.70;;
69953;SDS011;57276;51.364;12.376;2023-07-24T01:19:35;3.73;;;1.60;;
69953;SDS011;57276;51.364;12.376;2023-07-24T01:25:43;4.05;;;1.77;;
69953;SDS011;57276;51.364;12.376;2023-07-24T01:31:45;5.50;;;2.00;;
69953;SDS011;57276;51.364;12.376;2023-07-24T01:37:47;3.83;;;1.80;;
69953;SDS011;57276;51.364;12.376;2023-07-24T01:43:49;4.03;;;1.90;;
69953;SDS011;57276;51.364;12.376;2023-07-24T01:49:51;4.13;;;1.60;;
69953;SDS011;57276;51.364;12.376;2023-07-24T01:55:52;5.68;;;1.70;;
69953;SDS011;57276;51.364;12.376;2023-07-24T02:01:54;3.88;;;1.70;;
69953;SDS011;57276;51.364;12.376;2023-07-24T02:07:55;4.30;;;1.80;;
69953;SDS011;57276;51.364;12.376;2023-07-24T02:13:57;4.72;;;1.70;;
69953;SDS011;57276;51.364;12.376;2023-07-24T02:19:59;4.10;;;1.80;;
69953;SDS011;57276;51.364;12.376;2023-07-24T02:26:15;4.68;;;1.80;;
69953;SDS011;57276;51.364;12.376;2023-07-24T02:32:16;5.03;;;2.08;;
69953;SDS011;57276;51.364;12.376;2023-07-24T02:38:18;5.73;;;2.20;;
69953;SDS011;57276;51.364;12.376;2023-07-24T02:44:20;6.35;;;2.42;;
69953;SDS011;57276;51.364;12.376;2023-07-24T02:50:21;7.30;;;2.50;;
69953;SDS011;57276;51.364;12.376;2023-07-24T02:56:23;7.30;;;2.50;;
69953;SDS011;57276;51.364;12.376;2023-07-24T03:02:31;4.97;;;2.22;;
69953;SDS011;57276;51.364;12.376;2023-07-24T03:09:07;5.67;;;2.40;;
69953;SDS011;57276;51.364;12.376;2023-07-24T03:15:09;6.88;;;2.80;;
69953;SDS011;57276;51.364;12.376;2023-07-24T03:21:11;7.23;;;2.57;;
69953;SDS011;57276;51.364;12.376;2023-07-24T03:27:12;5.65;;;3.08;;
69953;SDS011;57276;51.364;12.376;2023-07-24T03:33:14;7.47;;;2.83;;
69953;SDS011;57276;51.364;12.376;2023-07-24T03:39:16;5.47;;;2.60;;
69953;SDS011;57276;51.364;12.376;2023-07-24T03:45:17;5.53;;;2.67;;
69953;SDS011;57276;51.364;12.376;2023-07-24T03:51:19;6.80;;;3.00;;
69953;SDS011;57276;51.364;12.376;2023-07-24T03:57:20;5.93;;;2.85;;
69953;SDS011;57276;51.364;12.376;2023-07-24T04:03:22;5.05;;;2.60;;
69953;SDS011;57276;51.364;12.376;2023-07-24T04:09:25;6.10;;;2.50;;
69953;SDS011;57276;51.364;12.376;2023-07-24T04:15:27;7.88;;;2.85;;
69953;SDS011;57276;51.364;12.376;2023-07-24T04:21:29;5.57;;;2.80;;
69953;SDS011;57276;51.364;12.376;2023-07-24T04:27:31;6.88;;;2.70;;
69953;SDS011;57276;51.364;12.376;2023-07-24T04:33:32;5.30;;;2.50;;
69953;SDS011;57276;51.364;12.376;2023-07-24T04:39:34;8.77;;;2.50;;
69953;SDS011;57276;51.364;12.376;2023-07-24T04:45:35;5.50;;;2.55;;
69953;SDS011;57276;51.364;12.376;2023-07-24T04:51:37;5.93;;;2.70;;
69953;SDS011;57276;51.364;12.376;2023-07-24T04:57:38;6.15;;;2.80;;
69953;SDS011;57276;51.364;12.376;2023-07-24T05:03:40;7.57;;;2.90;;
69953;SDS011;57276;51.364;12.376;2023-07-24T05:09:41;7.10;;;2.60;;
69953;SDS011;57276;51.364;12.376;2023-07-24T05:15:43;5.57;;;2.95;;
69953;SDS011;57276;51.364;12.376;2023-07-24T05:21:45;7.67;;;2.83;;
69953;SDS011;57276;51.364;12.376;2023-07-24T05:27:46;6.55;;;3.08;;
69953;SDS011;57276;51.364;12.376;2023-07-24T05:33:48;7.07;;;2.75;;
69953;SDS011;57276;51.364;12.376;2023-07-24T05:39:49;6.53;;;2.90;;
69953;SDS011;57276;51.364;12.376;2023-07-24T05:45:51;6.85;;;3.00;;
69953;SDS011;57276;51.364;12.376;2023-07-24T05:51:52;6.43;;;2.97;;
69953;SDS011;57276;51.364;12.376;2023-07-24T05:57:55;6.82;;;2.78;;
69953;SDS011;57276;51.364;12.376;2023-07-24T06:03:56;7.80;;;2.95;;
69953;SDS011;57276;51.364;12.376;2023-07-24T06:09:58;8.10;;;4.40;;
69953;SDS011;57276;51.364;12.376;2023-07-24T06:16:00;5.75;;;3.25;;
69953;SDS011;57276;51.364;12.376;2023-07-24T06:22:01;7.03;;;3.10;;
69953;SDS011;57276;51.364;12.376;2023-07-24T06:28:03;6.78;;;2.90;;
69953;SDS011;57276;51.364;12.376;2023-07-24T06:34:05;5.82;;;2.83;;
69953;SDS011;57276;51.364;12.376;2023-07-24T06:40:07;8.00;;;3.43;;
69953;SDS011;57276;51.364;12.376;2023-07-24T06:46:09;6.97;;;3.17;;
69953;SDS011;57276;51.364;12.376;2023-07-24T06:52:10;7.93;;;3.33;;
69953;SDS011;57276;51.364;12.376;2023-07-24T06:58:12;6.20;;;3.20;;
69953;SDS011;57276;51.364;12.376;2023-07-24T07:04:14;5.82;;;3.08;;
69953;SDS011;57276;51.364;12.376;2023-07-24T07:10:15;6.90;;;3.13;;
69953;SDS011;57276;51.364;12.376;2023-07-24T07:16:17;6.18;;;3.00;;
69953;SDS011;57276;51.364;12.376;2023-07-24T07:22:20;6.60;;;3.28;;
69953;SDS011;57276;51.364;12.376;2023-07-24T07:28:22;7.53;;;3.30;;
69953;SDS011;57276;51.364;12.376;2023-07-24T07:34:23;5.75;;;3.30;;
69953;SDS011;57276;51.364;12.376;2023-07-24T07:40:25;8.67;;;3.37;;
69953;SDS011;57276;51.364;12.376;2023-07-24T07:46:28;6.40;;;3.42;;
69953;SDS011;57276;51.364;12.376;2023-07-24T07:52:30;7.32;;;3.20;;
69953;SDS011;57276;51.364;12.376;2023-07-24T07:58:31;7.50;;;3.23;;
69953;SDS011;57276;51.364;12.376;2023-07-24T08:04:33;7.45;;;3.55;;
69953;SDS011;57276;51.364;12.376;2023-07-24T08:10:36;8.10;;;3.57;;
69953;SDS011;57276;51.364;12.376;2023-07-24T08:16:38;7.97;;;3.40;;
69953;SDS011;57276;51.364;12.376;2023-07-24T08:22:40;8.18;;;3.50;;
69953;SDS011;57276;51.364;12.376;2023-07-24T08:28:41;6.37;;;3.90;;
69953;SDS011;57276;51.364;12.376;2023-07-24T08:34:44;12.07;;;3.80;;
69953;SDS011;57276;51.364;12.376;2023-07-24T08:40:45;6.73;;;3.50;;
69953;SDS011;57276;51.364;12.376;2023-07-24T08:46:47;7.70;;;3.80;;
69953;SDS011;57276;51.364;12.376;2023-07-24T08:52:49;5.78;;;3.25;;
69953;SDS011;57276;51.364;12.376;2023-07-24T08:58:50;6.53;;;3.67;;
69953;SDS011;57276;51.364;12.376;2023-07-24T09:04:52;7.70;;;3.38;;
69953;SDS011;57276;51.364;12.376;2023-07-24T09:10:54;6.60;;;3.47;;
69953;SDS011;57276;51.364;12.376;2023-07-24T09:17:02;7.18;;;3.60;;
69953;SDS011;57276;51.364;12.376;2023-07-24T09:23:04;8.95;;;3.47;;
69953;SDS011;57276;51.364;12.376;2023-07-24T09:29:16;6.23;;;3.70;;
69953;SDS011;57276;51.364;12.376;2023-07-24T09:35:18;6.07;;;3.78;;
69953;SDS011;57276;51.364;12.376;2023-07-24T09:41:26;7.00;;;3.97;;
69953;SDS011;57276;51.364;12.376;2023-07-24T09:47:28;7.00;;;3.80;;
69953;SDS011;57276;51.364;12.376;2023-07-24T09:53:55;7.30;;;3.90;;
69953;SDS011;57276;51.364;12.376;2023-07-24T09:59:57;7.03;;;4.13;;
69953;SDS011;57276;51.364;12.376;2023-07-24T10:05:59;7.45;;;4.45;;
69953;SDS011;57276;51.364;12.376;2023-07-24T10:12:01;8.23;;;4.40;;
69953;SDS011;57276;51.364;12.376;2023-07-24T10:18:03;8.05;;;4.75;;
69953;SDS011;57276;51.364;12.376;2023-07-24T10:24:05;8.50;;;4.65;;
69953;SDS011;57276;51.364;12.376;2023-07-24T10:30:07;10.73;;;5.07;;
69953;SDS011;57276;51.364;12.376;2023-07-24T10:36:32;8.40;;;4.35;;
69953;SDS011;57276;51.364;12.376;2023-07-24T10:42:34;8.00;;;4.73;;
69953;SDS011;57276;51.364;12.376;2023-07-24T10:48:35;8.35;;;4.63;;
69953;SDS011;57276;51.364;12.376;2023-07-24T10:54:37;10.30;;;5.47;;
69953;SDS011;57276;51.364;12.376;2023-07-24T11:00:40;8.37;;;5.20;;
69953;SDS011;57276;51.364;12.376;2023-07-24T11:06:42;9.88;;;6.07;;
69953;SDS011;57276;51.364;12.376;2023-07-24T11:12:43;8.43;;;5.33;;
69953;SDS011;57276;51.364;12.376;2023-07-24T11:18:49;9.07;;;5.32;;
69953;SDS011;57276;51.364;12.376;2023-07-24T11:24:56;9.45;;;5.55;;
69953;SDS011;57276;51.364;12.376;2023-07-24T11:31:02;9.53;;;5.63;;
69953;SDS011;57276;51.364;12.376;2023-07-24T11:37:03;9.13;;;5.55;;
69953;SDS011;57276;51.364;12.376;2023-07-24T11:43:14;9.33;;;5.77;;
69953;SDS011;57276;51.364;12.376;2023-07-24T11:49:16;10.93;;;5.55;;
69953;SDS011;57276;51.364;12.376;2023-07-24T11:55:39;10.48;;;6.70;;
69953;SDS011;57276;51.364;12.376;2023-07-24T12:01:40;8.47;;;5.30;;
69953;SDS011;57276;51.364;12.376;2023-07-24T12:07:42;9.65;;;5.57;;
69953;SDS011;57276;51.364;12.376;2023-07-24T12:13:45;10.90;;;5.93;;
69953;SDS011;57276;51.364;12.376;2023-07-24T12:19:46;9.70;;;5.83;;
69953;SDS011;57276;51.364;12.376;2023-07-24T12:25:48;10.30;;;6.38;;
69953;SDS011;57276;51.364;12.376;2023-07-24T12:31:50;11.73;;;6.00;;
69953;SDS011;57276;51.364;12.376;2023-07-24T12:37:51;11.05;;;5.90;;
69953;SDS011;57276;51.364;12.376;2023-07-24T12:43:53;9.90;;;5.88;;
69953;SDS011;57276;51.364;12.376;2023-07-24T12:49:54;9.03;;;6.07;;
69953;SDS011;57276;51.364;12.376;2023-07-24T12:55:57;11.07;;;6.30;;
69953;SDS011;57276;51.364;12.376;2023-07-24T13:01:59;10.93;;;6.63;;
69953;SDS011;57276;51.364;12.376;2023-07-24T13:08:00;10.70;;;6.35;;
69953;SDS011;57276;51.364;12.376;2023-07-24T13:14:02;9.48;;;5.97;;
69953;SDS011;57276;51.364;12.376;2023-07-24T13:20:04;11.30;;;6.20;;
69953;SDS011;57276;51.364;12.376;2023-07-24T13:26:05;11.10;;;5.93;;
69953;SDS011;57276;51.364;12.376;2023-07-24T13:32:09;10.33;;;5.90;;
69953;SDS011;57276;51.364;12.376;2023-07-24T13:38:11;11.45;;;6.07;;
69953;SDS011;57276;51.364;12.376;2023-07-24T13:44:13;10.25;;;6.50;;
69953;SDS011;57276;51.364;12.376;2023-07-24T13:50:15;12.00;;;6.77;;
69953;SDS011;57276;51.364;12.376;2023-07-24T13:56:16;11.63;;;6.13;;
69953;SDS011;57276;51.364;12.376;2023-07-24T14:02:19;9.90;;;6.20;;
69953;SDS011;57276;51.364;12.376;2023-07-24T14:08:21;9.15;;;5.90;;
69953;SDS011;57276;51.364;12.376;2023-07-24T14:14:22;10.98;;;6.20;;
69953;SDS011;57276;51.364;12.376;2023-07-24T14:20:26;14.17;;;5.97;;
69953;SDS011;57276;51.364;12.376;2023-07-24T14:26:27;11.82;;;6.30;;
69953;SDS011;57276;51.364;12.376;2023-07-24T14:32:29;9.50;;;5.90;;
69953;SDS011;57276;51.364;12.376;2023-07-24T14:38:30;10.75;;;5.55;;
69953;SDS011;57276;51.364;12.376;2023-07-24T14:44:32;11.55;;;6.10;;
69953;SDS011;57276;51.364;12.376;2023-07-24T14:50:34;11.17;;;6.73;;
69953;SDS011;57276;51.364;12.376;2023-07-24T14:56:35;12.15;;;6.63;;
69953;SDS011;57276;51.364;12.376;2023-07-24T15:02:55;9.93;;;6.00;;
69953;SDS011;57276;51.364;12.376;2023-07-24T15:08:57;12.18;;;6.15;;
69953;SDS011;57276;51.364;12.376;2023-07-24T15:14:59;14.40;;;7.03;;
69953;SDS011;57276;51.364;12.376;2023-07-24T15:21:00;10.43;;;6.17;;
69953;SDS011;57276;51.364;12.376;2023-07-24T15:27:02;9.25;;;6.32;;
69953;SDS011;57276;51.364;12.376;2023-07-24T15:33:09;9.80;;;6.37;;
69953;SDS011;57276;51.364;12.376;2023-07-24T15:39:10;10.77;;;6.78;;
69953;SDS011;57276;51.364;12.376;2023-07-24T15:45:12;9.80;;;6.03;;
69953;SDS011;57276;51.364;12.376;2023-07-24T15:51:13;9.20;;;5.87;;
69953;SDS011;57276;51.364;12.376;2023-07-24T15:57:15;12.95;;;6.65;;
69953;SDS011;57276;51.364;12.376;2023-07-24T16:03:17;11.73;;;6.37;;
69953;SDS011;57276;51.364;12.376;2023-07-24T16:09:18;10.32;;;6.15;;
69953;SDS011;57276;51.364;12.376;2023-07-24T16:15:20;10.77;;;6.32;;
69953;SDS011;57276;51.364;12.376;2023-07-24T16:21:42;10.23;;;6.17;;
69953;SDS011;57276;51.364;12.376;2023-07-24T16:27:44;8.32;;;5.55;;
69953;SDS011;57276;51.364;12.376;2023-07-24T16:33:45;12.90;;;5.40;;
69953;SDS011;57276;51.364;12.376;2023-07-24T16:39:47;8.93;;;5.70;;
69953;SDS011;57276;51.364;12.376;2023-07-24T16:45:48;9.70;;;5.10;;
69953;SDS011;57276;51.364;12.376;2023-07-24T16:51:55;8.80;;;5.47;;
69953;SDS011;57276;51.364;12.376;2023-07-24T16:57:56;10.32;;;5.85;;
69953;SDS011;57276;51.364;12.376;2023-07-24T17:04:00;7.40;;;5.10;;
69953;SDS011;57276;51.364;12.376;2023-07-24T17:10:05;9.73;;;5.53;;
69953;SDS011;57276;51.364;12.376;2023-07-24T17:16:14;8.65;;;4.97;;
69953;SDS011;57276;51.364;12.376;2023-07-24T17:22:16;12.10;;;5.83;;
69953;SDS011;57276;51.364;12.376;2023-07-24T17:28:19;17.50;;;3.08;;
69953;SDS011;57276;51.364;12.376;2023-07-24T17:34:22;15.88;;;2.70;;
69953;SDS011;57276;51.364;12.376;2023-07-24T17:40:25;13.73;;;2.17;;
69953;SDS011;57276;51.364;12.376;2023-07-24T17:46:28;7.43;;;1.63;;
69953;SDS011;57276;51.364;12.376;2023-07-24T17:52:31;10.30;;;1.87;;
69953;SDS011;57276;51.364;12.376;2023-07-24T17:58:35;10.73;;;1.70;;
69953;SDS011;57276;51.364;12.376;2023-07-24T18:04:37;5.22;;;2.17;;
69953;SDS011;57276;51.364;12.376;2023-07-24T18:10:42;8.97;;;2.43;;
69953;SDS011;57276;51.364;12.376;2023-07-24T18:16:44;7.50;;;2.28;;
69953;SDS011;57276;51.364;12.376;2023-07-24T18:22:46;4.97;;;2.03;;
69953;SDS011;57276;51.364;12.376;2023-07-24T18:28:49;5.85;;;2.20;;
69953;SDS011;57276;51.364;12.376;2023-07-24T18:34:50;5.97;;;1.83;;
69953;SDS011;57276;51.364;12.376;2023-07-24T18:40:52;8.60;;;2.00;;
69953;SDS011;57276;51.364;12.376;2023-07-24T18:46:54;6.90;;;2.05;;
69953;SDS011;57276;51.364;12.376;2023-07-24T18:52:56;5.50;;;2.10;;
69953;SDS011;57276;51.364;12.376;2023-07-24T18:58:58;5.63;;;2.20;;
69953;SDS011;57276;51.364;12.376;2023-07-24T19:05:00;6.68;;;2.17;;
69953;SDS011;57276;51.364;12.376;2023-07-24T19:11:02;5.20;;;1.77;;
69953;SDS011;57276;51.364;12.376;2023-07-24T19:17:06;5.35;;;1.98;;
69953;SDS011;57276;51.364;12.376;2023-07-24T19:23:10;5.53;;;2.00;;
69953;SDS011;57276;51.364;12.376;2023-07-24T19:29:11;5.53;;;2.40;;
69953;SDS011;57276;51.364;12.376;2023-07-24T19:35:13;4.20;;;1.75;;
69953;SDS011;57276;51.364;12.376;2023-07-24T19:41:14;5.37;;;1.90;;
69953;SDS011;57276;51.364;12.376;2023-07-24T19:47:16;4.60;;;2.17;;
69953;SDS011;57276;51.364;12.376;2023-07-24T19:53:18;5.43;;;2.10;;
69953;SDS011;57276;51.364;12.376;2023-07-24T19:59:20;9.40;;;1.83;;
69953;SDS011;57276;51.364;12.376;2023-07-24T20:05:22;6.13;;;2.10;;
69953;SDS011;57276;51.364;12.376;2023-07-24T20:11:24;5.17;;;2.20;;
69953;SDS011;57276;51.364;12.376;2023-07-24T20:17:25;4.97;;;2.10;;
69953;SDS011;57276;51.364;12.376;2023-07-24T20:23:27;5.13;;;2.20;;
69953;SDS011;57276;51.364;12.376;2023-07-24T20:29:29;7.95;;;2.40;;
69953;SDS011;57276;51.364;12.376;2023-07-24T20:35:31;6.50;;;2.15;;
69953;SDS011;57276;51.364;12.376;2023-07-24T20:41:34;4.83;;;2.07;;
69953;SDS011;57276;51.364;12.376;2023-07-24T20:47:35;4.88;;;2.10;;
69953;SDS011;57276;51.364;12.376;2023-07-24T20:53:37;6.13;;;1.77;;
69953;SDS011;57276;51.364;12.376;2023-07-24T20:59:39;5.90;;;2.13;;
69953;SDS011;57276;51.364;12.376;2023-07-24T21:05:40;6.32;;;2.08;;
69953;SDS011;57276;51.364;12.376;2023-07-24T21:11:42;6.40;;;2.07;;
69953;SDS011;57276;51.364;12.376;2023-07-24T21:17:44;5.22;;;1.98;;
69953;SDS011;57276;51.364;12.376;2023-07-24T21:23:45;4.43;;;1.90;;
69953;SDS011;57276;51.364;12.376;2023-07-24T21:29:49;7.18;;;2.15;;
69953;SDS011;57276;51.364;12.376;2023-07-24T21:35:57;7.85;;;2.00;;
69953;SDS011;57276;51.364;12.376;2023-07-24T21:41:59;5.90;;;2.00;;
69953;SDS011;57276;51.364;12.376;2023-07-24T21:48:02;5.32;;;1.92;;
69953;SDS011;57276;51.364;12.376;2023-07-24T21:54:06;5.37;;;2.13;;
69953;SDS011;57276;51.364;12.376;2023-07-24T22:00:07;4.35;;;1.90;;
69953;SDS011;57276;51.364;12.376;2023-07-24T22:06:13;5.88;;;1.83;;
69953;SDS011;57276;51.364;12.376;2023-07-24T22:12:15;6.03;;;2.03;;
69953;SDS011;57276;51.364;12.376;2023-07-24T22:18:17;5.53;;;2.20;;
69953;SDS011;57276;51.364;12.376;2023-07-24T22:24:20;4.80;;;2.23;;
69953;SDS011;57276;51.364;12.376;2023-07-24T22:30:22;9.25;;;2.20;;
69953;SDS011;57276;51.364;12.376;2023-07-24T22:36:23;5.07;;;2.25;;
69953;SDS011;57276;51.364;12.376;2023-07-24T22:42:25;5.70;;;2.17;;
69953;SDS011;57276;51.364;12.376;2023-07-24T22:48:27;5.07;;;2.28;;
69953;SDS011;57276;51.364;12.376;2023-07-24T22:54:28;7.77;;;2.73;;
69953;SDS011;57276;51.364;12.376;2023-07-24T23:00:30;5.22;;;2.10;;
69953;SDS011;57276;51.364;12.376;2023-07-24T23:06:31;6.45;;;2.60;;
69953;SDS011;57276;51.364;12.376;2023-07-24T23:12:33;6.20;;;2.27;;
69953;SDS011;57276;51.364;12.376;2023-07-24T23:18:35;4.63;;;2.00;;
69953;SDS011;57276;51.364;12.376;2023-07-24T23:24:36;6.57;;;2.27;;
69953;SDS011;57276;51.364;12.376;2023-07-24T23:30:38;8.40;;;2.40;;
69953;SDS011;57276;51.364;12.376;2023-07-24T23:36:41;5.60;;;2.50;;
69953;SDS011;57276;51.364;12.376;2023-07-24T23:42:42;6.17;;;2.10;;
69953;SDS011;57276;51.364;12.376;2023-07-24T23:48:44;4.32;;;2.10;;
69953;SDS011;57276;51.364;12.376;2023-07-24T23:54:45;6.20;;;2.13;;
